EDT,Max TemperatureF,Mean TemperatureF,Min TemperatureF,Max Dew PointF,MeanDew PointF,Min DewpointF,Max Humidity, Mean Humidity, Min Humidity, Max Sea Level PressureIn, Mean Sea Level PressureIn, Min Sea Level PressureIn, Max VisibilityMiles, Mean VisibilityMiles, Min VisibilityMiles, Max Wind SpeedMPH, Mean Wind SpeedMPH, Max Gust SpeedMPH,PrecipitationIn, CloudCover, Events, WindDirDegrees
2013-8-1,82,73,64,68,64,61,94,81,51,30.05,29.96,29.90,10,8,2,9,1,21,0.36,7,Rain-Thunderstorm,228
2013-8-2,83,70,56,64,58,52,96,67,36,30.06,30.02,29.96,10,8,0,12,2,,0.00,3,Fog,225
2013-8-3,80,70,61,64,60,57,89,74,46,30.06,30.02,29.98,10,10,10,7,1,,0.01,4,Rain,105
2013-8-4,81,68,56,61,52,45,96,62,28,30.12,30.05,30.00,10,9,1,13,3,22,0.00,2,,339
2013-8-5,77,63,49,59,53,48,93,67,39,30.18,30.11,30.06,10,10,7,9,2,,0.00,3,,157
2013-8-6,79,71,63,64,61,59,93,75,52,30.09,30.06,30.03,10,10,3,10,2,,0.02,6,Rain,115
2013-8-7,81,73,65,67,65,64,94,78,57,30.11,30.08,30.05,10,9,2,13,3,16,0.00,7,Rain,188
2013-8-8,81,74,66,70,68,64,93,81,63,30.09,30.07,30.04,10,9,5,15,3,21,0.02,6,Rain,182
2013-8-9,90,80,69,69,67,64,93,70,42,30.05,30.01,29.96,10,9,5,17,6,26,0.00,2,,217
2013-8-10,81,74,68,70,67,66,93,80,60,30.15,30.10,30.05,10,9,2,9,2,,0.43,5,Rain,56
2013-8-11,80,74,67,71,67,64,93,82,61,30.18,30.12,30.06,10,8,2,8,1,,0.49,6,Rain,177
2013-8-12,85,74,64,69,65,60,96,73,44,30.11,30.05,29.98,10,7,0,8,1,,0.00,5,Fog,161
2013-8-13,83,76,70,67,63,59,88,69,45,29.98,29.89,29.83,10,9,5,9,2,,0.00,6,Rain-Thunderstorm,260
2013-8-14,73,64,54,60,47,40,82,54,35,30.18,30.05,29.91,10,10,10,14,7,20,0.00,3,,1
2013-8-15,72,58,45,51,48,43,93,68,39,30.25,30.19,30.14,10,10,5,8,1,,0.00,2,,150
2013-8-16,74,60,46,54,50,45,96,71,39,30.25,30.20,30.18,10,8,0,7,1,,0.00,3,Fog,152
2013-8-17,76,62,47,60,52,46,96,71,39,30.31,30.27,30.24,10,8,0,9,1,,0.01,5,Fog-Rain,88
2013-8-18,66,62,59,60,59,57,94,89,78,30.30,30.26,30.23,10,7,2,7,3,,0.90,8,Rain,33
2013-8-19,78,70,61,66,63,60,94,82,62,30.24,30.17,30.11,10,10,5,7,2,,0.04,5,Rain,185
2013-8-20,82,71,60,67,64,59,96,80,48,30.25,30.20,30.16,10,7,0,7,1,,0.00,4,Fog,171
2013-8-21,83,72,61,68,65,60,96,83,52,30.27,30.22,30.17,10,8,0,15,1,20,0.03,4,Fog-Rain-Thunderstorm,175
2013-8-22,83,72,60,65,63,59,96,77,47,30.18,30.12,30.05,10,8,0,7,2,9,0.01,2,Fog-Rain-Thunderstorm,220
2013-8-23,73,65,57,66,63,56,96,91,77,30.20,30.09,30.03,10,5,0,13,2,20,0.61,5,Fog-Rain-Thunderstorm,39
2013-8-24,77,65,53,64,56,51,97,79,39,30.38,30.31,30.20,10,6,0,10,1,,0.01,4,Fog,83
2013-8-25,78,64,50,58,54,49,96,74,38,30.47,30.39,30.33,10,8,0,8,1,,0.00,2,Fog,147
2013-8-26,81,66,52,60,56,51,95,69,37,30.37,30.25,30.11,10,10,1,9,1,,0.00,0,,194
2013-8-27,87,74,60,67,62,57,91,72,43,30.12,30.05,29.99,10,9,5,12,2,,0.00,3,Rain,285
2013-8-28,76,72,68,72,67,64,94,87,79,30.04,29.96,29.89,10,6,1,8,2,,0.42,4,Rain-Thunderstorm,197
2013-8-29,81,72,64,69,67,62,94,81,56,30.09,30.01,29.91,10,7,2,12,3,,0.01,5,Rain,32
2013-8-30,84,72,61,67,63,61,97,76,49,30.10,30.04,29.96,10,6,0,12,3,,0.00,4,Fog,205
2013-8-31,85,74,64,68,65,59,93,81,53,29.98,29.94,29.90,10,8,1,15,3,32,0.88,3,Rain-Thunderstorm,184